sensor_id;sensor_type;location;lat;lon;timestamp;pressure;altitude;pressure_sealevel;temperature;humidity
63916;BME280;50094;51.356;-0.196;2023-01-28T00:01:26;102345.96;;;24.96;22.74
63916;BME280;50094;51.356;-0.196;2023-01-28T00:03:54;102347.12;;;24.93;22.73
63916;BME280;50094;51.356;-0.196;2023-01-28T00:06:21;102347.80;;;24.94;22.71
63916;BME280;50094;51.356;-0.196;2023-01-28T00:08:49;102345.90;;;24.73;22.74
63916;BME280;50094;51.356;-0.196;2023-01-28T00:11:15;102353.15;;;24.95;22.76
63916;BME280;50094;51.356;-0.196;2023-01-28T00:13:43;102351.92;;;25.21;22.77
63916;BME280;50094;51.356;-0.196;2023-01-28T00:16:11;102351.30;;;24.95;22.78
63916;BME280;50094;51.356;-0.196;2023-01-28T00:18:38;102348.08;;;24.94;22.80
63916;BME280;50094;51.356;-0.196;2023-01-28T00:21:07;102344.81;;;24.94;22.81
63916;BME280;50094;51.356;-0.196;2023-01-28T00:23:37;102348.53;;;24.93;22.81
63916;BME280;50094;51.356;-0.196;2023-01-28T00:26:06;102354.25;;;24.90;22.83
63916;BME280;50094;51.356;-0.196;2023-01-28T00:28:34;102351.46;;;24.93;22.82
63916;BME280;50094;51.356;-0.196;2023-01-28T00:31:05;102345.06;;;24.73;22.83
63916;BME280;50094;51.356;-0.196;2023-01-28T00:33:33;102345.97;;;24.92;22.82
63916;BME280;50094;51.356;-0.196;2023-01-28T00:36:00;102347.17;;;25.21;22.81
63916;BME280;50094;51.356;-0.196;2023-01-28T00:38:29;102344.59;;;24.89;22.80
63916;BME280;50094;51.356;-0.196;2023-01-28T00:41:06;102340.67;;;24.90;22.81
63916;BME280;50094;51.356;-0.196;2023-01-28T00:43:33;102338.86;;;24.64;22.80
63916;BME280;50094;51.356;-0.196;2023-01-28T00:46:00;102340.10;;;24.82;22.78
63916;BME280;50094;51.356;-0.196;2023-01-28T00:48:28;102336.78;;;25.08;22.80
63916;BME280;50094;51.356;-0.196;2023-01-28T00:50:56;102335.21;;;24.79;22.81
63916;BME280;50094;51.356;-0.196;2023-01-28T00:53:23;102336.22;;;25.05;22.80
63916;BME280;50094;51.356;-0.196;2023-01-28T00:55:51;102337.93;;;24.77;22.80
63916;BME280;50094;51.356;-0.196;2023-01-28T00:58:19;102334.69;;;24.79;22.76
63916;BME280;50094;51.356;-0.196;2023-01-28T01:00:46;102330.00;;;24.76;22.77
63916;BME280;50094;51.356;-0.196;2023-01-28T01:03:13;102328.26;;;24.75;22.77
63916;BME280;50094;51.356;-0.196;2023-01-28T01:05:40;102327.38;;;25.03;22.77
63916;BME280;50094;51.356;-0.196;2023-01-28T01:08:07;102322.09;;;24.76;22.78
63916;BME280;50094;51.356;-0.196;2023-01-28T01:10:34;102327.34;;;24.77;22.78
63916;BME280;50094;51.356;-0.196;2023-01-28T01:13:01;102331.99;;;24.96;22.78
63916;BME280;50094;51.356;-0.196;2023-01-28T01:15:28;102335.29;;;24.73;22.76
63916;BME280;50094;51.356;-0.196;2023-01-28T01:17:56;102341.25;;;25.00;22.75
63916;BME280;50094;51.356;-0.196;2023-01-28T01:20:25;102340.86;;;24.99;22.76
63916;BME280;50094;51.356;-0.196;2023-01-28T01:22:52;102338.93;;;24.98;22.77
63916;BME280;50094;51.356;-0.196;2023-01-28T01:25:20;102338.71;;;24.51;22.77
63916;BME280;50094;51.356;-0.196;2023-01-28T01:27:49;102336.62;;;24.52;22.77
63916;BME280;50094;51.356;-0.196;2023-01-28T01:30:16;102340.85;;;25.02;22.79
63916;BME280;50094;51.356;-0.196;2023-01-28T01:32:44;102338.04;;;24.49;22.75
63916;BME280;50094;51.356;-0.196;2023-01-28T01:35:11;102340.61;;;24.68;22.71
63916;BME280;50094;51.356;-0.196;2023-01-28T01:37:38;102336.95;;;24.90;22.71
63916;BME280;50094;51.356;-0.196;2023-01-28T01:40:06;102338.56;;;24.66;22.68
63916;BME280;50094;51.356;-0.196;2023-01-28T01:42:33;102337.13;;;24.88;22.68
63916;BME280;50094;51.356;-0.196;2023-01-28T01:45:03;102333.29;;;24.63;22.66
63916;BME280;50094;51.356;-0.196;2023-01-28T01:47:36;102332.27;;;24.65;22.65
63916;BME280;50094;51.356;-0.196;2023-01-28T01:50:08;102338.30;;;24.61;22.64
63916;BME280;50094;51.356;-0.196;2023-01-28T01:52:37;102337.67;;;24.84;22.64
63916;BME280;50094;51.356;-0.196;2023-01-28T01:55:11;102333.04;;;24.57;22.66
63916;BME280;50094;51.356;-0.196;2023-01-28T01:57:39;102331.22;;;24.57;22.65
63916;BME280;50094;51.356;-0.196;2023-01-28T02:00:09;102338.24;;;24.85;22.64
63916;BME280;50094;51.356;-0.196;2023-01-28T02:02:39;102338.05;;;24.84;22.66
63916;BME280;50094;51.356;-0.196;2023-01-28T02:05:08;102335.80;;;24.55;22.68
63916;BME280;50094;51.356;-0.196;2023-01-28T02:07:36;102334.96;;;24.82;22.67
63916;BME280;50094;51.356;-0.196;2023-01-28T02:10:05;102337.59;;;24.59;22.69
63916;BME280;50094;51.356;-0.196;2023-01-28T02:12:35;102335.64;;;24.61;22.68
63916;BME280;50094;51.356;-0.196;2023-01-28T02:15:07;102335.41;;;24.60;22.70
63916;BME280;50094;51.356;-0.196;2023-01-28T02:17:36;102338.08;;;24.66;22.69
63916;BME280;50094;51.356;-0.196;2023-01-28T02:20:05;102347.73;;;24.62;22.71
63916;BME280;50094;51.356;-0.196;2023-01-28T02:22:50;102350.09;;;24.85;22.72
63916;BME280;50094;51.356;-0.196;2023-01-28T02:25:40;102347.20;;;24.82;22.74
63916;BME280;50094;51.356;-0.196;2023-01-28T02:28:22;102347.80;;;24.58;22.74
63916;BME280;50094;51.356;-0.196;2023-01-28T02:30:52;102351.11;;;24.83;22.75
63916;BME280;50094;51.356;-0.196;2023-01-28T02:33:28;102357.28;;;24.55;22.76
63916;BME280;50094;51.356;-0.196;2023-01-28T02:35:59;102358.24;;;24.81;22.77
63916;BME280;50094;51.356;-0.196;2023-01-28T02:38:33;102355.98;;;24.53;22.77
63916;BME280;50094;51.356;-0.196;2023-01-28T02:41:05;102350.14;;;24.54;22.78
63916;BME280;50094;51.356;-0.196;2023-01-28T02:43:36;102347.67;;;24.79;22.79
63916;BME280;50094;51.356;-0.196;2023-01-28T02:46:14;102344.94;;;24.48;22.77
63916;BME280;50094;51.356;-0.196;2023-01-28T02:48:43;102345.38;;;24.71;22.76
63916;BME280;50094;51.356;-0.196;2023-01-28T02:51:19;102347.91;;;24.75;22.77
63916;BME280;50094;51.356;-0.196;2023-01-28T02:53:56;102347.18;;;24.76;22.76
63916;BME280;50094;51.356;-0.196;2023-01-28T02:56:30;102347.85;;;24.77;22.77
63916;BME280;50094;51.356;-0.196;2023-01-28T02:59:05;102350.63;;;24.73;22.72
63916;BME280;50094;51.356;-0.196;2023-01-28T03:01:41;102353.68;;;24.72;22.70
63916;BME280;50094;51.356;-0.196;2023-01-28T03:04:14;102358.10;;;24.46;22.70
63916;BME280;50094;51.356;-0.196;2023-01-28T03:07:01;102361.10;;;24.70;22.72
63916;BME280;50094;51.356;-0.196;2023-01-28T03:09:31;102363.40;;;24.22;22.69
63916;BME280;50094;51.356;-0.196;2023-01-28T03:12:02;102366.78;;;24.72;22.69
63916;BME280;50094;51.356;-0.196;2023-01-28T03:14:33;102370.76;;;24.69;22.66
63916;BME280;50094;51.356;-0.196;2023-01-28T03:17:02;102366.24;;;24.69;22.68
63916;BME280;50094;51.356;-0.196;2023-01-28T03:19:31;102362.19;;;24.43;22.69
63916;BME280;50094;51.356;-0.196;2023-01-28T03:21:58;102363.21;;;24.68;22.67
63916;BME280;50094;51.356;-0.196;2023-01-28T03:24:29;102364.11;;;24.40;22.67
63916;BME280;50094;51.356;-0.196;2023-01-28T03:27:02;102370.23;;;24.42;22.69
63916;BME280;50094;51.356;-0.196;2023-01-28T03:29:34;102370.22;;;24.69;22.70
63916;BME280;50094;51.356;-0.196;2023-01-28T03:32:02;102370.75;;;24.64;22.71
63916;BME280;50094;51.356;-0.196;2023-01-28T03:34:30;102371.40;;;24.63;22.73
63916;BME280;50094;51.356;-0.196;2023-01-28T03:36:58;102369.51;;;24.66;22.74
63916;BME280;50094;51.356;-0.196;2023-01-28T03:39:28;102370.62;;;24.61;22.75
63916;BME280;50094;51.356;-0.196;2023-01-28T03:41:58;102375.37;;;24.65;22.77
63916;BME280;50094;51.356;-0.196;2023-01-28T03:44:26;102372.67;;;24.65;22.77
63916;BME280;50094;51.356;-0.196;2023-01-28T03:46:53;102370.71;;;24.67;22.77
63916;BME280;50094;51.356;-0.196;2023-01-28T03:49:20;102367.95;;;24.41;22.77
63916;BME280;50094;51.356;-0.196;2023-01-28T03:51:47;102369.72;;;24.67;22.73
63916;BME280;50094;51.356;-0.196;2023-01-28T03:54:14;102376.83;;;24.66;22.73
63916;BME280;50094;51.356;-0.196;2023-01-28T03:56:41;102375.89;;;24.63;22.76
63916;BME280;50094;51.356;-0.196;2023-01-28T03:59:08;102382.84;;;24.62;22.77
63916;BME280;50094;51.356;-0.196;2023-01-28T04:01:35;102386.79;;;24.59;22.71
63916;BME280;50094;51.356;-0.196;2023-01-28T04:04:02;102387.07;;;24.29;22.70
63916;BME280;50094;51.356;-0.196;2023-01-28T04:06:30;102381.94;;;24.31;22.70
63916;BME280;50094;51.356;-0.196;2023-01-28T04:08:57;102379.32;;;24.33;22.67
63916;BME280;50094;51.356;-0.196;2023-01-28T04:11:24;102381.08;;;24.60;22.68
63916;BME280;50094;51.356;-0.196;2023-01-28T04:13:51;102383.81;;;24.62;22.70
63916;BME280;50094;51.356;-0.196;2023-01-28T04:16:18;102388.61;;;24.63;22.70
63916;BME280;50094;51.356;-0.196;2023-01-28T04:18:46;102386.95;;;24.60;22.71
63916;BME280;50094;51.356;-0.196;2023-01-28T04:21:14;102384.16;;;24.58;22.72
63916;BME280;50094;51.356;-0.196;2023-01-28T04:23:41;102389.64;;;24.32;22.72
63916;BME280;50094;51.356;-0.196;2023-01-28T04:26:07;102391.95;;;24.56;22.72
63916;BME280;50094;51.356;-0.196;2023-01-28T04:28:34;102388.44;;;24.58;22.75
63916;BME280;50094;51.356;-0.196;2023-01-28T04:31:01;102383.71;;;24.31;22.74
63916;BME280;50094;51.356;-0.196;2023-01-28T04:33:28;102380.19;;;24.59;22.76
63916;BME280;50094;51.356;-0.196;2023-01-28T04:35:55;102382.20;;;24.54;22.76
63916;BME280;50094;51.356;-0.196;2023-01-28T04:38:22;102385.53;;;24.56;22.77
63916;BME280;50094;51.356;-0.196;2023-01-28T04:40:49;102390.47;;;24.62;22.75
63916;BME280;50094;51.356;-0.196;2023-01-28T04:43:16;102394.24;;;24.60;22.73
63916;BME280;50094;51.356;-0.196;2023-01-28T04:45:44;102395.95;;;24.55;22.73
63916;BME280;50094;51.356;-0.196;2023-01-28T04:48:12;102398.84;;;24.27;22.72
63916;BME280;50094;51.356;-0.196;2023-01-28T04:50:40;102394.08;;;24.53;22.73
63916;BME280;50094;51.356;-0.196;2023-01-28T04:53:08;102386.55;;;24.53;22.74
63916;BME280;50094;51.356;-0.196;2023-01-28T04:55:36;102386.77;;;24.50;22.72
63916;BME280;50094;51.356;-0.196;2023-01-28T04:58:03;102388.95;;;24.47;22.71
63916;BME280;50094;51.356;-0.196;2023-01-28T05:00:30;102387.83;;;24.49;22.68
63916;BME280;50094;51.356;-0.196;2023-01-28T05:02:57;102379.92;;;24.50;22.70
63916;BME280;50094;51.356;-0.196;2023-01-28T05:05:24;102377.22;;;24.23;22.69
63916;BME280;50094;51.356;-0.196;2023-01-28T05:07:52;102377.63;;;24.48;22.71
63916;BME280;50094;51.356;-0.196;2023-01-28T05:10:25;102381.71;;;24.49;22.73
63916;BME280;50094;51.356;-0.196;2023-01-28T05:12:54;102372.15;;;24.51;22.74
63916;BME280;50094;51.356;-0.196;2023-01-28T05:15:21;102367.91;;;24.45;22.72
63916;BME280;50094;51.356;-0.196;2023-01-28T05:17:49;102364.15;;;24.70;22.69
63916;BME280;50094;51.356;-0.196;2023-01-28T05:20:16;102365.04;;;24.49;22.71
63916;BME280;50094;51.356;-0.196;2023-01-28T05:22:43;102365.93;;;24.44;22.70
63916;BME280;50094;51.356;-0.196;2023-01-28T05:25:10;102369.38;;;24.49;22.70
63916;BME280;50094;51.356;-0.196;2023-01-28T05:27:37;102374.90;;;24.20;22.67
63916;BME280;50094;51.356;-0.196;2023-01-28T05:30:06;102373.85;;;24.20;22.67
63916;BME280;50094;51.356;-0.196;2023-01-28T05:32:33;102373.22;;;24.51;22.66
63916;BME280;50094;51.356;-0.196;2023-01-28T05:35:01;102374.20;;;24.47;22.65
63916;BME280;50094;51.356;-0.196;2023-01-28T05:37:28;102377.99;;;24.50;22.65
63916;BME280;50094;51.356;-0.196;2023-01-28T05:39:55;102376.22;;;24.48;22.68
63916;BME280;50094;51.356;-0.196;2023-01-28T05:42:22;102374.11;;;24.46;22.69
63916;BME280;50094;51.356;-0.196;2023-01-28T05:44:48;102375.03;;;24.47;22.71
63916;BME280;50094;51.356;-0.196;2023-01-28T05:47:16;102380.93;;;24.17;22.73
63916;BME280;50094;51.356;-0.196;2023-01-28T05:49:43;102380.87;;;24.65;22.74
63916;BME280;50094;51.356;-0.196;2023-01-28T05:52:10;102378.32;;;24.15;22.73
63916;BME280;50094;51.356;-0.196;2023-01-28T05:54:37;102376.53;;;24.44;22.74
63916;BME280;50094;51.356;-0.196;2023-01-28T05:57:04;102379.09;;;24.45;22.72
63916;BME280;50094;51.356;-0.196;2023-01-28T05:59:30;102382.68;;;24.45;22.74
63916;BME280;50094;51.356;-0.196;2023-01-28T06:01:57;102382.88;;;24.18;22.74
63916;BME280;50094;51.356;-0.196;2023-01-28T06:04:26;102381.85;;;24.67;22.75
63916;BME280;50094;51.356;-0.196;2023-01-28T06:06:53;102382.35;;;24.43;22.77
63916;BME280;50094;51.356;-0.196;2023-01-28T06:09:20;102384.95;;;24.43;22.81
63916;BME280;50094;51.356;-0.196;2023-01-28T06:11:47;102390.28;;;24.45;22.84
63916;BME280;50094;51.356;-0.196;2023-01-28T06:14:13;102394.90;;;24.48;22.85
63916;BME280;50094;51.356;-0.196;2023-01-28T06:16:40;102403.98;;;24.51;22.86
63916;BME280;50094;51.356;-0.196;2023-01-28T06:19:07;102398.09;;;24.55;22.87
63916;BME280;50094;51.356;-0.196;2023-01-28T06:21:34;102394.85;;;24.58;22.88
63916;BME280;50094;51.356;-0.196;2023-01-28T06:24:01;102395.44;;;24.71;22.87
63916;BME280;50094;51.356;-0.196;2023-01-28T06:26:28;102399.52;;;24.75;22.87
63916;BME280;50094;51.356;-0.196;2023-01-28T06:28:55;102401.72;;;24.54;22.86
63916;BME280;50094;51.356;-0.196;2023-01-28T06:31:21;102403.87;;;24.84;22.86
63916;BME280;50094;51.356;-0.196;2023-01-28T06:33:48;102405.02;;;24.87;22.85
63916;BME280;50094;51.356;-0.196;2023-01-28T06:36:16;102407.43;;;24.64;22.85
63916;BME280;50094;51.356;-0.196;2023-01-28T06:38:43;102400.98;;;24.95;22.85
63916;BME280;50094;51.356;-0.196;2023-01-28T06:41:11;102397.43;;;24.71;22.84
63916;BME280;50094;51.356;-0.196;2023-01-28T06:43:38;102394.90;;;24.73;22.85
63916;BME280;50094;51.356;-0.196;2023-01-28T06:46:06;102400.69;;;24.75;22.86
63916;BME280;50094;51.356;-0.196;2023-01-28T06:48:33;102410.59;;;24.81;22.84
63916;BME280;50094;51.356;-0.196;2023-01-28T06:51:00;102409.76;;;25.06;22.84
63916;BME280;50094;51.356;-0.196;2023-01-28T06:53:26;102406.96;;;24.84;22.85
63916;BME280;50094;51.356;-0.196;2023-01-28T06:55:53;102409.32;;;24.86;22.83
63916;BME280;50094;51.356;-0.196;2023-01-28T06:58:20;102409.89;;;24.88;22.81
63916;BME280;50094;51.356;-0.196;2023-01-28T07:00:48;102413.12;;;24.91;22.79
63916;BME280;50094;51.356;-0.196;2023-01-28T07:03:15;102415.98;;;24.95;22.77
63916;BME280;50094;51.356;-0.196;2023-01-28T07:05:42;102418.97;;;24.99;22.75
63916;BME280;50094;51.356;-0.196;2023-01-28T07:08:09;102416.73;;;25.00;22.74
63916;BME280;50094;51.356;-0.196;2023-01-28T07:10:36;102412.91;;;25.30;22.72
63916;BME280;50094;51.356;-0.196;2023-01-28T07:13:03;102412.29;;;24.85;22.70
63916;BME280;50094;51.356;-0.196;2023-01-28T07:15:31;102412.60;;;25.08;22.67
63916;BME280;50094;51.356;-0.196;2023-01-28T07:17:58;102414.34;;;25.10;22.66
63916;BME280;50094;51.356;-0.196;2023-01-28T07:20:24;102415.74;;;25.12;22.64
63916;BME280;50094;51.356;-0.196;2023-01-28T07:22:52;102410.69;;;25.16;22.62
63916;BME280;50094;51.356;-0.196;2023-01-28T07:25:19;102412.35;;;24.96;22.57
63916;BME280;50094;51.356;-0.196;2023-01-28T07:27:48;102414.51;;;25.01;22.54
63916;BME280;50094;51.356;-0.196;2023-01-28T07:30:17;102420.92;;;25.01;22.50
63916;BME280;50094;51.356;-0.196;2023-01-28T07:32:44;102422.80;;;25.24;22.48
63916;BME280;50094;51.356;-0.196;2023-01-28T07:35:12;102423.73;;;24.83;22.55
63916;BME280;50094;51.356;-0.196;2023-01-28T07:37:39;102427.66;;;25.01;22.52
63916;BME280;50094;51.356;-0.196;2023-01-28T07:40:08;102428.19;;;25.11;22.50
63916;BME280;50094;51.356;-0.196;2023-01-28T07:42:35;102429.31;;;25.10;22.50
63916;BME280;50094;51.356;-0.196;2023-01-28T07:45:03;102426.97;;;25.11;22.49
63916;BME280;50094;51.356;-0.196;2023-01-28T07:47:30;102422.11;;;25.37;22.47
63916;BME280;50094;51.356;-0.196;2023-01-28T07:49:57;102424.99;;;25.12;22.47
63916;BME280;50094;51.356;-0.196;2023-01-28T07:52:24;102429.19;;;25.14;22.45
63916;BME280;50094;51.356;-0.196;2023-01-28T07:54:52;102431.10;;;25.19;22.45
63916;BME280;50094;51.356;-0.196;2023-01-28T07:57:18;102430.91;;;25.23;22.43
63916;BME280;50094;51.356;-0.196;2023-01-28T07:59:45;102432.91;;;25.25;22.43
63916;BME280;50094;51.356;-0.196;2023-01-28T08:02:12;102433.22;;;25.24;22.42
63916;BME280;50094;51.356;-0.196;2023-01-28T08:04:40;102436.15;;;25.25;22.42
63916;BME280;50094;51.356;-0.196;2023-01-28T08:07:07;102442.53;;;25.25;22.43
63916;BME280;50094;51.356;-0.196;2023-01-28T08:09:34;102443.48;;;25.46;22.44
63916;BME280;50094;51.356;-0.196;2023-01-28T08:12:01;102437.64;;;25.29;22.42
63916;BME280;50094;51.356;-0.196;2023-01-28T08:14:28;102437.99;;;25.78;22.41
63916;BME280;50094;51.356;-0.196;2023-01-28T08:16:56;102435.18;;;25.32;22.40
63916;BME280;50094;51.356;-0.196;2023-01-28T08:19:24;102434.66;;;25.31;22.38
63916;BME280;50094;51.356;-0.196;2023-01-28T08:21:51;102430.96;;;25.09;22.37
63916;BME280;50094;51.356;-0.196;2023-01-28T08:24:18;102425.83;;;25.32;22.36
63916;BME280;50094;51.356;-0.196;2023-01-28T08:26:47;102425.35;;;25.58;22.34
63916;BME280;50094;51.356;-0.196;2023-01-28T08:29:14;102422.78;;;25.34;22.34
63916;BME280;50094;51.356;-0.196;2023-01-28T08:31:41;102422.37;;;25.34;22.34
63916;BME280;50094;51.356;-0.196;2023-01-28T08:34:08;102426.13;;;25.55;22.34
63916;BME280;50094;51.356;-0.196;2023-01-28T08:36:36;102426.36;;;25.33;22.35
63916;BME280;50094;51.356;-0.196;2023-01-28T08:39:03;102420.18;;;25.31;22.35
63916;BME280;50094;51.356;-0.196;2023-01-28T08:41:30;102426.74;;;25.33;22.36
63916;BME280;50094;51.356;-0.196;2023-01-28T08:43:57;102424.29;;;25.30;22.37
63916;BME280;50094;51.356;-0.196;2023-01-28T08:46:24;102423.50;;;25.06;22.38
63916;BME280;50094;51.356;-0.196;2023-01-28T08:48:52;102434.50;;;25.23;22.40
63916;BME280;50094;51.356;-0.196;2023-01-28T08:51:19;102438.28;;;25.42;22.41
63916;BME280;50094;51.356;-0.196;2023-01-28T08:53:45;102441.46;;;25.17;22.42
63916;BME280;50094;51.356;-0.196;2023-01-28T08:56:12;102437.00;;;25.36;22.44
63916;BME280;50094;51.356;-0.196;2023-01-28T08:58:39;102440.52;;;25.07;22.43
63916;BME280;50094;51.356;-0.196;2023-01-28T09:01:06;102448.05;;;25.05;22.45
63916;BME280;50094;51.356;-0.196;2023-01-28T09:03:34;102452.30;;;25.26;22.46
63916;BME280;50094;51.356;-0.196;2023-01-28T09:06:03;102449.41;;;25.25;22.46
63916;BME280;50094;51.356;-0.196;2023-01-28T09:08:31;102455.54;;;25.23;22.46
63916;BME280;50094;51.356;-0.196;2023-01-28T09:10:59;102456.40;;;25.01;22.46
63916;BME280;50094;51.356;-0.196;2023-01-28T09:13:27;102456.95;;;25.22;22.47
63916;BME280;50094;51.356;-0.196;2023-01-28T09:15:55;102456.24;;;25.21;22.45
63916;BME280;50094;51.356;-0.196;2023-01-28T09:18:21;102460.34;;;24.96;22.47
63916;BME280;50094;51.356;-0.196;2023-01-28T09:20:49;102464.10;;;25.14;22.45
63916;BME280;50094;51.356;-0.196;2023-01-28T09:23:16;102469.35;;;25.12;22.43
63916;BME280;50094;51.356;-0.196;2023-01-28T09:25:43;102468.98;;;25.13;22.44
63916;BME280;50094;51.356;-0.196;2023-01-28T09:28:10;102467.09;;;25.10;22.44
63916;BME280;50094;51.356;-0.196;2023-01-28T09:30:37;102471.20;;;25.09;22.46
63916;BME280;50094;51.356;-0.196;2023-01-28T09:33:04;102471.84;;;25.07;22.47
63916;BME280;50094;51.356;-0.196;2023-01-28T09:35:32;102478.06;;;25.31;22.47
63916;BME280;50094;51.356;-0.196;2023-01-28T09:37:59;102477.43;;;25.03;22.48
63916;BME280;50094;51.356;-0.196;2023-01-28T09:40:32;102480.74;;;25.07;22.48
63916;BME280;50094;51.356;-0.196;2023-01-28T09:43:15;102474.41;;;25.08;22.47
63916;BME280;50094;51.356;-0.196;2023-01-28T09:45:48;102480.05;;;25.05;22.49
63916;BME280;50094;51.356;-0.196;2023-01-28T09:48:18;102487.13;;;25.03;22.49
63916;BME280;50094;51.356;-0.196;2023-01-28T09:50:50;102482.14;;;25.05;22.48
63916;BME280;50094;51.356;-0.196;2023-01-28T09:53:21;102477.74;;;25.02;22.49
63916;BME280;50094;51.356;-0.196;2023-01-28T09:55:53;102483.93;;;25.02;22.49
63916;BME280;50094;51.356;-0.196;2023-01-28T09:58:21;102488.56;;;25.01;22.50
63916;BME280;50094;51.356;-0.196;2023-01-28T10:00:53;102489.54;;;25.00;22.50
63916;BME280;50094;51.356;-0.196;2023-01-28T10:03:32;102483.49;;;25.26;22.51
63916;BME280;50094;51.356;-0.196;2023-01-28T10:06:11;102481.40;;;24.78;22.50
63916;BME280;50094;51.356;-0.196;2023-01-28T10:09:02;102480.81;;;24.98;22.51
63916;BME280;50094;51.356;-0.196;2023-01-28T10:11:46;102475.55;;;24.96;22.51
63916;BME280;50094;51.356;-0.196;2023-01-28T10:14:21;102472.10;;;25.02;22.50
63916;BME280;50094;51.356;-0.196;2023-01-28T10:16:56;102470.27;;;24.98;22.45
63916;BME280;50094;51.356;-0.196;2023-01-28T10:19:29;102465.32;;;24.96;22.44
63916;BME280;50094;51.356;-0.196;2023-01-28T10:22:01;102466.77;;;25.24;22.45
63916;BME280;50094;51.356;-0.196;2023-01-28T10:24:32;102465.56;;;24.97;22.46
63916;BME280;50094;51.356;-0.196;2023-01-28T10:27:01;102466.96;;;24.95;22.47
63916;BME280;50094;51.356;-0.196;2023-01-28T10:29:32;102460.52;;;24.95;22.47
63916;BME280;50094;51.356;-0.196;2023-01-28T10:32:20;102453.18;;;24.80;22.43
63916;BME280;50094;51.356;-0.196;2023-01-28T10:34:50;102455.14;;;24.99;22.44
63916;BME280;50094;51.356;-0.196;2023-01-28T10:37:18;102456.39;;;24.96;22.42
63916;BME280;50094;51.356;-0.196;2023-01-28T10:39:47;102450.95;;;24.96;22.44
63916;BME280;50094;51.356;-0.196;2023-01-28T10:42:27;102459.32;;;25.25;22.42
63916;BME280;50094;51.356;-0.196;2023-01-28T10:44:57;102455.80;;;24.96;22.45
63916;BME280;50094;51.356;-0.196;2023-01-28T10:47:31;102448.26;;;25.22;22.45
63916;BME280;50094;51.356;-0.196;2023-01-28T10:50:00;102439.07;;;24.96;22.44
63916;BME280;50094;51.356;-0.196;2023-01-28T10:52:32;102441.19;;;24.97;22.45
63916;BME280;50094;51.356;-0.196;2023-01-28T10:55:00;102430.71;;;25.01;22.45
63916;BME280;50094;51.356;-0.196;2023-01-28T10:57:28;102431.72;;;25.26;22.44
63916;BME280;50094;51.356;-0.196;2023-01-28T10:59:55;102435.03;;;25.24;22.44
63916;BME280;50094;51.356;-0.196;2023-01-28T11:02:27;102435.77;;;25.01;22.43
63916;BME280;50094;51.356;-0.196;2023-01-28T11:05:16;102423.30;;;25.30;22.42
63916;BME280;50094;51.356;-0.196;2023-01-28T11:07:44;102414.92;;;25.02;22.42
63916;BME280;50094;51.356;-0.196;2023-01-28T11:10:25;102403.81;;;24.80;22.42
63916;BME280;50094;51.356;-0.196;2023-01-28T11:12:55;102389.43;;;24.79;22.43
63916;BME280;50094;51.356;-0.196;2023-01-28T11:15:23;102383.24;;;25.00;22.42
63916;BME280;50094;51.356;-0.196;2023-01-28T11:17:55;102373.99;;;24.79;22.41
63916;BME280;50094;51.356;-0.196;2023-01-28T11:20:26;102371.10;;;25.03;22.42
63916;BME280;50094;51.356;-0.196;2023-01-28T11:22:54;102371.81;;;25.02;22.41
63916;BME280;50094;51.356;-0.196;2023-01-28T11:25:28;102367.13;;;25.00;22.41
63916;BME280;50094;51.356;-0.196;2023-01-28T11:27:56;102358.72;;;24.78;22.41
63916;BME280;50094;51.356;-0.196;2023-01-28T11:30:26;102359.32;;;25.02;22.41
63916;BME280;50094;51.356;-0.196;2023-01-28T11:32:56;102362.82;;;25.02;22.40
63916;BME280;50094;51.356;-0.196;2023-01-28T11:35:26;102367.30;;;25.02;22.40
63916;BME280;50094;51.356;-0.196;2023-01-28T11:37:54;102375.54;;;24.80;22.40
63916;BME280;50094;51.356;-0.196;2023-01-28T11:40:22;102377.23;;;25.27;22.41
63916;BME280;50094;51.356;-0.196;2023-01-28T11:42:50;102375.95;;;24.76;22.41
63916;BME280;50094;51.356;-0.196;2023-01-28T11:45:19;102376.16;;;25.00;22.40
63916;BME280;50094;51.356;-0.196;2023-01-28T11:47:57;102380.05;;;25.01;22.39
63916;BME280;50094;51.356;-0.196;2023-01-28T11:50:35;102385.47;;;25.28;22.39
63916;BME280;50094;51.356;-0.196;2023-01-28T11:53:16;102383.22;;;24.78;22.39
63916;BME280;50094;51.356;-0.196;2023-01-28T11:56:02;102380.66;;;25.29;22.38
63916;BME280;50094;51.356;-0.196;2023-01-28T11:58:40;102380.80;;;25.00;22.39
63916;BME280;50094;51.356;-0.196;2023-01-28T12:01:15;102382.86;;;24.99;22.38
63916;BME280;50094;51.356;-0.196;2023-01-28T12:04:06;102388.57;;;24.99;22.39
63916;BME280;50094;51.356;-0.196;2023-01-28T12:06:46;102393.40;;;25.01;22.38
63916;BME280;50094;51.356;-0.196;2023-01-28T12:09:24;102391.48;;;25.01;22.37
63916;BME280;50094;51.356;-0.196;2023-01-28T12:12:03;102394.64;;;25.01;22.37
63916;BME280;50094;51.356;-0.196;2023-01-28T12:14:47;102403.22;;;24.78;22.36
63916;BME280;50094;51.356;-0.196;2023-01-28T12:17:26;102406.26;;;24.79;22.37
63916;BME280;50094;51.356;-0.196;2023-01-28T12:20:09;102411.88;;;25.02;22.37
63916;BME280;50094;51.356;-0.196;2023-01-28T12:22:56;102411.38;;;25.03;22.35
63916;BME280;50094;51.356;-0.196;2023-01-28T12:25:37;102416.22;;;25.01;22.35
63916;BME280;50094;51.356;-0.196;2023-01-28T12:28:11;102414.83;;;25.00;22.35
63916;BME280;50094;51.356;-0.196;2023-01-28T12:30:58;102405.62;;;25.01;22.35
63916;BME280;50094;51.356;-0.196;2023-01-28T12:33:40;102395.27;;;24.99;22.36
63916;BME280;50094;51.356;-0.196;2023-01-28T12:36:25;102389.95;;;25.02;22.35
63916;BME280;50094;51.356;-0.196;2023-01-28T12:39:06;102390.59;;;25.00;22.34
63916;BME280;50094;51.356;-0.196;2023-01-28T12:41:40;102385.20;;;25.01;22.33
63916;BME280;50094;51.356;-0.196;2023-01-28T12:44:13;102383.71;;;24.98;22.34
63916;BME280;50094;51.356;-0.196;2023-01-28T12:46:50;102381.19;;;24.98;22.33
63916;BME280;50094;51.356;-0.196;2023-01-28T12:49:23;102382.81;;;24.99;22.32
63916;BME280;50094;51.356;-0.196;2023-01-28T12:51:59;102386.38;;;24.97;22.32
63916;BME280;50094;51.356;-0.196;2023-01-28T12:54:33;102384.36;;;25.02;22.30